sensor_id;sensor_type;location;lat;lon;timestamp;pressure;altitude;pressure_sealevel;temperature;humidity
60246;BME280;46107;53.356;-1.524;2023-02-19T00:01:12;99234.67;;;5.28;95.66
60246;BME280;46107;53.356;-1.524;2023-02-19T00:03:40;99223.06;;;5.20;99.40
60246;BME280;46107;53.356;-1.524;2023-02-19T00:06:10;99226.45;;;6.19;93.93
60246;BME280;46107;53.356;-1.524;2023-02-19T00:08:38;99223.79;;;6.83;89.04
60246;BME280;46107;53.356;-1.524;2023-02-19T00:11:07;99230.93;;;7.19;86.22
60246;BME280;46107;53.356;-1.524;2023-02-19T00:13:36;99234.99;;;6.09;89.84
60246;BME280;46107;53.356;-1.524;2023-02-19T00:16:05;99232.41;;;6.25;91.08
60246;BME280;46107;53.356;-1.524;2023-02-19T00:18:33;99239.09;;;5.35;95.73
60246;BME280;46107;53.356;-1.524;2023-02-19T00:21:00;99240.34;;;5.90;97.65
60246;BME280;46107;53.356;-1.524;2023-02-19T00:23:28;99236.15;;;6.35;93.28
60246;BME280;46107;53.356;-1.524;2023-02-19T00:25:56;99246.51;;;5.83;95.21
60246;BME280;46107;53.356;-1.524;2023-02-19T00:28:29;99243.92;;;5.92;95.20
60246;BME280;46107;53.356;-1.524;2023-02-19T00:31:04;99237.01;;;6.34;92.15
60246;BME280;46107;53.356;-1.524;2023-02-19T00:33:31;99240.92;;;6.76;91.84
60246;BME280;46107;53.356;-1.524;2023-02-19T00:36:00;99249.24;;;6.10;94.93
60246;BME280;46107;53.356;-1.524;2023-02-19T00:38:27;99246.94;;;6.11;94.96
60246;BME280;46107;53.356;-1.524;2023-02-19T00:40:54;99254.44;;;5.16;100.00
60246;BME280;46107;53.356;-1.524;2023-02-19T00:43:22;99242.73;;;5.05;100.00
60246;BME280;46107;53.356;-1.524;2023-02-19T00:45:54;99270.33;;;5.05;100.00
60246;BME280;46107;53.356;-1.524;2023-02-19T00:48:21;99278.62;;;6.05;92.38
60246;BME280;46107;53.356;-1.524;2023-02-19T00:50:49;99279.73;;;5.72;92.78
60246;BME280;46107;53.356;-1.524;2023-02-19T00:53:16;99268.45;;;5.35;94.12
60246;BME280;46107;53.356;-1.524;2023-02-19T00:55:44;99277.07;;;5.44;93.30
60246;BME280;46107;53.356;-1.524;2023-02-19T00:58:12;99271.70;;;5.79;93.21
60246;BME280;46107;53.356;-1.524;2023-02-19T01:00:39;99272.82;;;5.35;92.66
60246;BME280;46107;53.356;-1.524;2023-02-19T01:03:07;99276.98;;;5.67;89.51
60246;BME280;46107;53.356;-1.524;2023-02-19T01:05:34;99288.11;;;5.51;90.20
60246;BME280;46107;53.356;-1.524;2023-02-19T01:08:02;99289.01;;;5.86;90.45
60246;BME280;46107;53.356;-1.524;2023-02-19T01:10:29;99271.86;;;5.58;91.56
60246;BME280;46107;53.356;-1.524;2023-02-19T01:12:57;99270.84;;;5.33;92.61
60246;BME280;46107;53.356;-1.524;2023-02-19T01:15:25;99261.60;;;4.99;92.42
60246;BME280;46107;53.356;-1.524;2023-02-19T01:17:52;99277.26;;;5.07;94.17
60246;BME280;46107;53.356;-1.524;2023-02-19T01:20:20;99277.51;;;5.43;92.62
60246;BME280;46107;53.356;-1.524;2023-02-19T01:22:47;99278.75;;;4.59;96.67
60246;BME280;46107;53.356;-1.524;2023-02-19T01:25:15;99282.05;;;5.33;94.35
60246;BME280;46107;53.356;-1.524;2023-02-19T01:27:42;99282.56;;;5.03;92.17
60246;BME280;46107;53.356;-1.524;2023-02-19T01:30:11;99289.31;;;5.65;89.83
60246;BME280;46107;53.356;-1.524;2023-02-19T01:32:39;99292.16;;;5.15;91.57
60246;BME280;46107;53.356;-1.524;2023-02-19T01:35:07;99297.86;;;5.04;93.21
60246;BME280;46107;53.356;-1.524;2023-02-19T01:37:34;99304.57;;;5.04;94.53
60246;BME280;46107;53.356;-1.524;2023-02-19T01:40:02;99325.70;;;5.66;89.48
60246;BME280;46107;53.356;-1.524;2023-02-19T01:42:30;99314.89;;;5.29;91.73
60246;BME280;46107;53.356;-1.524;2023-02-19T01:45:22;99319.64;;;5.29;90.97
60246;BME280;46107;53.356;-1.524;2023-02-19T01:47:56;99322.78;;;5.43;86.13
60246;BME280;46107;53.356;-1.524;2023-02-19T01:50:28;99337.26;;;5.15;90.49
60246;BME280;46107;53.356;-1.524;2023-02-19T01:53:02;99346.24;;;4.71;93.84
60246;BME280;46107;53.356;-1.524;2023-02-19T01:55:33;99354.76;;;5.35;90.25
60246;BME280;46107;53.356;-1.524;2023-02-19T01:58:02;99358.64;;;4.63;91.61
60246;BME280;46107;53.356;-1.524;2023-02-19T02:00:30;99376.12;;;4.21;88.88
60246;BME280;46107;53.356;-1.524;2023-02-19T02:02:59;99376.36;;;4.01;88.30
60246;BME280;46107;53.356;-1.524;2023-02-19T02:05:38;99382.37;;;3.76;88.88
60246;BME280;46107;53.356;-1.524;2023-02-19T02:08:08;99392.12;;;4.39;85.22
60246;BME280;46107;53.356;-1.524;2023-02-19T02:10:36;99393.30;;;4.46;86.89
60246;BME280;46107;53.356;-1.524;2023-02-19T02:13:03;99386.42;;;3.43;89.47
60246;BME280;46107;53.356;-1.524;2023-02-19T02:15:38;99378.07;;;3.64;89.24
60246;BME280;46107;53.356;-1.524;2023-02-19T02:18:19;99369.85;;;3.17;91.08
60246;BME280;46107;53.356;-1.524;2023-02-19T02:21:03;99370.54;;;3.51;88.55
60246;BME280;46107;53.356;-1.524;2023-02-19T02:23:43;99373.50;;;3.81;87.79
60246;BME280;46107;53.356;-1.524;2023-02-19T02:26:25;99373.48;;;4.07;87.66
60246;BME280;46107;53.356;-1.524;2023-02-19T02:29:12;99366.67;;;3.93;87.93
60246;BME280;46107;53.356;-1.524;2023-02-19T02:31:49;99370.28;;;4.21;85.99
60246;BME280;46107;53.356;-1.524;2023-02-19T02:34:23;99362.93;;;3.51;87.21
60246;BME280;46107;53.356;-1.524;2023-02-19T02:36:55;99364.99;;;3.64;86.47
60246;BME280;46107;53.356;-1.524;2023-02-19T02:39:24;99375.40;;;3.28;88.06
60246;BME280;46107;53.356;-1.524;2023-02-19T02:41:56;99365.22;;;4.37;85.76
60246;BME280;46107;53.356;-1.524;2023-02-19T02:44:33;99371.66;;;2.69;91.54
60246;BME280;46107;53.356;-1.524;2023-02-19T02:47:00;99373.09;;;3.12;90.57
60246;BME280;46107;53.356;-1.524;2023-02-19T02:49:29;99350.85;;;3.47;87.53
60246;BME280;46107;53.356;-1.524;2023-02-19T02:51:57;99361.45;;;2.99;88.05
60246;BME280;46107;53.356;-1.524;2023-02-19T02:54:30;99362.39;;;3.76;85.21
60246;BME280;46107;53.356;-1.524;2023-02-19T02:56:59;99368.67;;;3.11;90.82
60246;BME280;46107;53.356;-1.524;2023-02-19T02:59:30;99372.58;;;3.07;89.28
60246;BME280;46107;53.356;-1.524;2023-02-19T03:02:02;99383.43;;;2.69;90.06
60246;BME280;46107;53.356;-1.524;2023-02-19T03:04:36;99381.62;;;2.57;89.92
60246;BME280;46107;53.356;-1.524;2023-02-19T03:07:08;99409.58;;;2.57;89.17
60246;BME280;46107;53.356;-1.524;2023-02-19T03:09:40;99416.44;;;2.40;87.01
60246;BME280;46107;53.356;-1.524;2023-02-19T03:12:11;99406.89;;;1.87;89.12
60246;BME280;46107;53.356;-1.524;2023-02-19T03:14:45;99424.59;;;2.69;90.90
60246;BME280;46107;53.356;-1.524;2023-02-19T03:17:17;99439.71;;;2.84;88.62
60246;BME280;46107;53.356;-1.524;2023-02-19T03:19:51;99453.58;;;2.13;89.46
60246;BME280;46107;53.356;-1.524;2023-02-19T03:22:23;99453.57;;;2.65;86.55
60246;BME280;46107;53.356;-1.524;2023-02-19T03:24:55;99459.94;;;2.06;88.13
60246;BME280;46107;53.356;-1.524;2023-02-19T03:27:25;99472.64;;;2.36;89.65
60246;BME280;46107;53.356;-1.524;2023-02-19T03:29:56;99464.95;;;2.24;88.04
60246;BME280;46107;53.356;-1.524;2023-02-19T03:32:29;99474.82;;;2.57;86.41
60246;BME280;46107;53.356;-1.524;2023-02-19T03:35:02;99476.10;;;2.41;87.73
60246;BME280;46107;53.356;-1.524;2023-02-19T03:37:34;99487.77;;;2.82;86.51
60246;BME280;46107;53.356;-1.524;2023-02-19T03:40:04;99485.54;;;2.77;87.65
60246;BME280;46107;53.356;-1.524;2023-02-19T03:42:38;99502.56;;;1.96;87.92
60246;BME280;46107;53.356;-1.524;2023-02-19T03:45:19;99514.25;;;2.47;85.67
60246;BME280;46107;53.356;-1.524;2023-02-19T03:47:53;99522.02;;;1.92;88.49
60246;BME280;46107;53.356;-1.524;2023-02-19T03:50:27;99521.78;;;2.86;85.07
60246;BME280;46107;53.356;-1.524;2023-02-19T03:53:04;99526.77;;;3.97;80.08
60246;BME280;46107;53.356;-1.524;2023-02-19T03:55:43;99537.65;;;3.18;82.72
60246;BME280;46107;53.356;-1.524;2023-02-19T03:58:21;99552.54;;;2.84;84.62
60246;BME280;46107;53.356;-1.524;2023-02-19T04:00:56;99571.53;;;3.33;80.51
60246;BME280;46107;53.356;-1.524;2023-02-19T04:03:30;99572.11;;;3.10;82.15
60246;BME280;46107;53.356;-1.524;2023-02-19T04:06:02;99571.21;;;2.25;85.45
60246;BME280;46107;53.356;-1.524;2023-02-19T04:08:33;99577.09;;;3.19;83.87
60246;BME280;46107;53.356;-1.524;2023-02-19T04:11:02;99581.30;;;2.80;83.81
60246;BME280;46107;53.356;-1.524;2023-02-19T04:13:33;99585.75;;;3.33;82.56
60246;BME280;46107;53.356;-1.524;2023-02-19T04:16:06;99589.14;;;3.25;82.36
60246;BME280;46107;53.356;-1.524;2023-02-19T04:18:38;99589.62;;;3.45;77.98
60246;BME280;46107;53.356;-1.524;2023-02-19T04:21:08;99595.17;;;3.31;79.95
60246;BME280;46107;53.356;-1.524;2023-02-19T04:23:39;99591.92;;;3.91;78.29
60246;BME280;46107;53.356;-1.524;2023-02-19T04:26:10;99589.53;;;2.96;80.93
60246;BME280;46107;53.356;-1.524;2023-02-19T04:28:39;99587.15;;;2.41;83.34
60246;BME280;46107;53.356;-1.524;2023-02-19T04:31:07;99578.72;;;3.01;83.10
60246;BME280;46107;53.356;-1.524;2023-02-19T04:33:35;99586.40;;;2.53;84.24
60246;BME280;46107;53.356;-1.524;2023-02-19T04:36:02;99588.77;;;2.62;85.09
60246;BME280;46107;53.356;-1.524;2023-02-19T04:38:30;99598.56;;;2.49;85.19
60246;BME280;46107;53.356;-1.524;2023-02-19T04:40:57;99609.54;;;2.69;83.24
60246;BME280;46107;53.356;-1.524;2023-02-19T04:43:25;99621.84;;;2.25;84.91
60246;BME280;46107;53.356;-1.524;2023-02-19T04:45:53;99618.44;;;3.05;83.03
60246;BME280;46107;53.356;-1.524;2023-02-19T04:48:25;99623.74;;;2.34;79.64
60246;BME280;46107;53.356;-1.524;2023-02-19T04:50:53;99621.26;;;2.60;80.93
60246;BME280;46107;53.356;-1.524;2023-02-19T04:53:20;99625.08;;;2.24;79.32
60246;BME280;46107;53.356;-1.524;2023-02-19T04:55:48;99625.40;;;3.40;77.24
60246;BME280;46107;53.356;-1.524;2023-02-19T04:58:15;99633.58;;;2.41;83.01
60246;BME280;46107;53.356;-1.524;2023-02-19T05:00:43;99637.05;;;2.71;81.21
60246;BME280;46107;53.356;-1.524;2023-02-19T05:03:10;99643.98;;;2.61;83.53
60246;BME280;46107;53.356;-1.524;2023-02-19T05:05:38;99642.54;;;3.26;80.14
60246;BME280;46107;53.356;-1.524;2023-02-19T05:08:05;99645.80;;;2.77;79.64
60246;BME280;46107;53.356;-1.524;2023-02-19T05:10:33;99657.89;;;3.37;78.18
60246;BME280;46107;53.356;-1.524;2023-02-19T05:13:00;99649.00;;;2.91;79.83
60246;BME280;46107;53.356;-1.524;2023-02-19T05:15:28;99650.30;;;3.74;76.48
60246;BME280;46107;53.356;-1.524;2023-02-19T05:17:55;99646.40;;;2.81;79.22
60246;BME280;46107;53.356;-1.524;2023-02-19T05:20:23;99641.27;;;2.41;81.72
60246;BME280;46107;53.356;-1.524;2023-02-19T05:22:51;99648.69;;;2.69;78.57
60246;BME280;46107;53.356;-1.524;2023-02-19T05:25:18;99660.85;;;2.89;78.35
60246;BME280;46107;53.356;-1.524;2023-02-19T05:27:46;99666.90;;;3.42;76.20
60246;BME280;46107;53.356;-1.524;2023-02-19T05:30:14;99678.59;;;3.76;73.05
60246;BME280;46107;53.356;-1.524;2023-02-19T05:32:41;99684.44;;;3.81;70.15
60246;BME280;46107;53.356;-1.524;2023-02-19T05:35:09;99701.02;;;4.55;69.44
60246;BME280;46107;53.356;-1.524;2023-02-19T05:37:36;99707.86;;;4.35;67.87
60246;BME280;46107;53.356;-1.524;2023-02-19T05:40:05;99711.13;;;4.48;70.17
60246;BME280;46107;53.356;-1.524;2023-02-19T05:42:32;99707.73;;;6.08;63.54
60246;BME280;46107;53.356;-1.524;2023-02-19T05:45:00;99713.24;;;6.37;60.38
60246;BME280;46107;53.356;-1.524;2023-02-19T05:47:27;99714.63;;;6.35;59.90
60246;BME280;46107;53.356;-1.524;2023-02-19T05:49:55;99718.83;;;5.93;60.38
60246;BME280;46107;53.356;-1.524;2023-02-19T05:52:23;99718.20;;;5.70;60.07
60246;BME280;46107;53.356;-1.524;2023-02-19T05:54:51;99722.58;;;5.17;60.88
60246;BME280;46107;53.356;-1.524;2023-02-19T05:57:17;99718.19;;;5.43;61.13
60246;BME280;46107;53.356;-1.524;2023-02-19T05:59:46;99718.55;;;5.86;60.05
60246;BME280;46107;53.356;-1.524;2023-02-19T06:02:13;99723.18;;;5.27;60.59
60246;BME280;46107;53.356;-1.524;2023-02-19T06:04:41;99721.42;;;6.32;59.23
60246;BME280;46107;53.356;-1.524;2023-02-19T06:07:08;99727.65;;;3.85;64.32
60246;BME280;46107;53.356;-1.524;2023-02-19T06:09:36;99721.34;;;5.28;61.62
60246;BME280;46107;53.356;-1.524;2023-02-19T06:12:04;99716.99;;;5.60;60.46
60246;BME280;46107;53.356;-1.524;2023-02-19T06:14:31;99715.07;;;6.25;58.49
60246;BME280;46107;53.356;-1.524;2023-02-19T06:16:58;99715.65;;;5.54;59.76
60246;BME280;46107;53.356;-1.524;2023-02-19T06:19:26;99721.01;;;5.46;60.92
60246;BME280;46107;53.356;-1.524;2023-02-19T06:21:54;99719.89;;;5.77;60.50
60246;BME280;46107;53.356;-1.524;2023-02-19T06:24:21;99726.44;;;5.51;60.36
60246;BME280;46107;53.356;-1.524;2023-02-19T06:26:49;99733.12;;;6.38;57.74
60246;BME280;46107;53.356;-1.524;2023-02-19T06:29:17;99737.47;;;5.44;59.80
60246;BME280;46107;53.356;-1.524;2023-02-19T06:31:45;99753.04;;;6.92;56.03
60246;BME280;46107;53.356;-1.524;2023-02-19T06:34:12;99764.93;;;6.26;56.29
60246;BME280;46107;53.356;-1.524;2023-02-19T06:36:39;99767.76;;;5.37;59.49
60246;BME280;46107;53.356;-1.524;2023-02-19T06:39:06;99766.81;;;5.83;57.98
60246;BME280;46107;53.356;-1.524;2023-02-19T06:41:34;99765.38;;;6.34;57.51
60246;BME280;46107;53.356;-1.524;2023-02-19T06:44:01;99771.71;;;4.46;61.74
60246;BME280;46107;53.356;-1.524;2023-02-19T06:46:29;99772.90;;;4.45;62.56
60246;BME280;46107;53.356;-1.524;2023-02-19T06:48:57;99760.43;;;5.65;59.25
60246;BME280;46107;53.356;-1.524;2023-02-19T06:51:24;99763.59;;;5.22;62.16
60246;BME280;46107;53.356;-1.524;2023-02-19T06:53:52;99792.07;;;4.01;64.67
60246;BME280;46107;53.356;-1.524;2023-02-19T06:56:22;99814.71;;;4.50;64.14
60246;BME280;46107;53.356;-1.524;2023-02-19T06:58:50;99805.34;;;5.04;61.33
60246;BME280;46107;53.356;-1.524;2023-02-19T07:01:18;99779.47;;;4.34;62.62
60246;BME280;46107;53.356;-1.524;2023-02-19T07:03:45;99779.24;;;3.66;66.94
60246;BME280;46107;53.356;-1.524;2023-02-19T07:06:13;99791.39;;;2.95;67.89
60246;BME280;46107;53.356;-1.524;2023-02-19T07:08:40;99781.57;;;3.65;68.56
60246;BME280;46107;53.356;-1.524;2023-02-19T07:11:08;99782.68;;;3.82;66.52
60246;BME280;46107;53.356;-1.524;2023-02-19T07:13:35;99790.04;;;2.79;67.92
60246;BME280;46107;53.356;-1.524;2023-02-19T07:16:05;99783.99;;;3.05;68.46
60246;BME280;46107;53.356;-1.524;2023-02-19T07:18:34;99779.89;;;3.42;68.45
60246;BME280;46107;53.356;-1.524;2023-02-19T07:21:02;99781.24;;;2.43;72.84
60246;BME280;46107;53.356;-1.524;2023-02-19T07:23:29;99773.21;;;2.58;74.11
60246;BME280;46107;53.356;-1.524;2023-02-19T07:25:57;99752.40;;;3.36;71.45
60246;BME280;46107;53.356;-1.524;2023-02-19T07:28:24;99744.49;;;3.40;71.40
60246;BME280;46107;53.356;-1.524;2023-02-19T07:30:51;99739.07;;;3.52;72.37
60246;BME280;46107;53.356;-1.524;2023-02-19T07:33:19;99743.61;;;3.17;71.76
60246;BME280;46107;53.356;-1.524;2023-02-19T07:35:48;99755.75;;;3.40;71.79
60246;BME280;46107;53.356;-1.524;2023-02-19T07:38:16;99762.64;;;3.78;71.25
60246;BME280;46107;53.356;-1.524;2023-02-19T07:40:50;99768.35;;;3.30;71.88
60246;BME280;46107;53.356;-1.524;2023-02-19T07:43:17;99777.37;;;3.56;71.33
60246;BME280;46107;53.356;-1.524;2023-02-19T07:45:46;99778.36;;;2.79;73.02
60246;BME280;46107;53.356;-1.524;2023-02-19T07:48:13;99786.50;;;3.16;73.74
60246;BME280;46107;53.356;-1.524;2023-02-19T07:50:41;99794.49;;;2.71;73.24
60246;BME280;46107;53.356;-1.524;2023-02-19T07:53:08;99793.11;;;3.15;71.33
60246;BME280;46107;53.356;-1.524;2023-02-19T07:55:36;99793.34;;;2.77;74.10
60246;BME280;46107;53.356;-1.524;2023-02-19T07:58:03;99805.20;;;2.41;75.74
60246;BME280;46107;53.356;-1.524;2023-02-19T08:00:31;99813.53;;;2.04;79.32
60246;BME280;46107;53.356;-1.524;2023-02-19T08:02:58;99822.13;;;1.70;78.95
60246;BME280;46107;53.356;-1.524;2023-02-19T08:05:26;99836.44;;;2.85;78.10
60246;BME280;46107;53.356;-1.524;2023-02-19T08:07:54;99843.82;;;2.96;78.24
60246;BME280;46107;53.356;-1.524;2023-02-19T08:10:21;99848.90;;;3.66;77.14
60246;BME280;46107;53.356;-1.524;2023-02-19T08:12:55;99846.17;;;3.33;76.11
60246;BME280;46107;53.356;-1.524;2023-02-19T08:15:23;99838.81;;;3.44;75.67
60246;BME280;46107;53.356;-1.524;2023-02-19T08:17:50;99840.32;;;4.13;73.20
60246;BME280;46107;53.356;-1.524;2023-02-19T08:20:18;99849.06;;;3.88;75.47
60246;BME280;46107;53.356;-1.524;2023-02-19T08:22:51;99843.95;;;4.16;74.59
60246;BME280;46107;53.356;-1.524;2023-02-19T08:25:19;99826.09;;;3.97;74.95
60246;BME280;46107;53.356;-1.524;2023-02-19T08:27:47;99810.55;;;4.33;72.63
60246;BME280;46107;53.356;-1.524;2023-02-19T08:30:15;99810.66;;;4.52;71.39
60246;BME280;46107;53.356;-1.524;2023-02-19T08:32:42;99797.70;;;3.89;73.00
60246;BME280;46107;53.356;-1.524;2023-02-19T08:35:10;99795.79;;;3.00;75.48
60246;BME280;46107;53.356;-1.524;2023-02-19T08:37:37;99799.72;;;3.72;75.94
60246;BME280;46107;53.356;-1.524;2023-02-19T08:40:05;99802.54;;;3.74;74.70
60246;BME280;46107;53.356;-1.524;2023-02-19T08:42:32;99791.51;;;4.19;74.09
60246;BME280;46107;53.356;-1.524;2023-02-19T08:44:59;99798.17;;;4.68;71.97
60246;BME280;46107;53.356;-1.524;2023-02-19T08:47:27;99803.34;;;4.33;73.66
60246;BME280;46107;53.356;-1.524;2023-02-19T08:49:55;99798.65;;;4.71;73.73
60246;BME280;46107;53.356;-1.524;2023-02-19T08:52:22;99803.01;;;5.31;71.74
60246;BME280;46107;53.356;-1.524;2023-02-19T08:54:50;99819.44;;;5.75;69.66
60246;BME280;46107;53.356;-1.524;2023-02-19T08:57:17;99815.32;;;4.40;72.77
60246;BME280;46107;53.356;-1.524;2023-02-19T08:59:45;99835.58;;;5.36;71.47
60246;BME280;46107;53.356;-1.524;2023-02-19T09:02:12;99842.80;;;4.96;70.57
60246;BME280;46107;53.356;-1.524;2023-02-19T09:04:40;99843.55;;;5.92;68.32
60246;BME280;46107;53.356;-1.524;2023-02-19T09:07:07;99853.01;;;5.26;67.11
60246;BME280;46107;53.356;-1.524;2023-02-19T09:09:36;99846.41;;;5.76;68.15
60246;BME280;46107;53.356;-1.524;2023-02-19T09:12:04;99839.83;;;5.93;64.15
60246;BME280;46107;53.356;-1.524;2023-02-19T09:14:33;99843.21;;;5.52;65.52
60246;BME280;46107;53.356;-1.524;2023-02-19T09:17:01;99853.68;;;5.62;65.59
60246;BME280;46107;53.356;-1.524;2023-02-19T09:19:30;99847.94;;;6.42;63.54
60246;BME280;46107;53.356;-1.524;2023-02-19T09:21:58;99853.47;;;5.48;68.47
60246;BME280;46107;53.356;-1.524;2023-02-19T09:24:26;99855.85;;;6.11;63.50
60246;BME280;46107;53.356;-1.524;2023-02-19T09:26:54;99853.99;;;6.52;63.36
60246;BME280;46107;53.356;-1.524;2023-02-19T09:29:24;99859.29;;;5.61;68.06
60246;BME280;46107;53.356;-1.524;2023-02-19T09:31:56;99852.22;;;6.80;64.55
60246;BME280;46107;53.356;-1.524;2023-02-19T09:34:24;99845.75;;;6.38;65.13
60246;BME280;46107;53.356;-1.524;2023-02-19T09:36:52;99857.24;;;5.29;68.38
60246;BME280;46107;53.356;-1.524;2023-02-19T09:39:20;99846.99;;;5.54;68.53
60246;BME280;46107;53.356;-1.524;2023-02-19T09:41:49;99841.55;;;6.13;65.92
60246;BME280;46107;53.356;-1.524;2023-02-19T09:44:23;99834.79;;;5.98;66.27
60246;BME280;46107;53.356;-1.524;2023-02-19T09:46:53;99838.54;;;5.75;66.25
60246;BME280;46107;53.356;-1.524;2023-02-19T09:49:25;99835.62;;;4.98;69.33
60246;BME280;46107;53.356;-1.524;2023-02-19T09:51:58;99839.86;;;5.21;66.29
60246;BME280;46107;53.356;-1.524;2023-02-19T09:54:31;99845.27;;;5.40;68.12
60246;BME280;46107;53.356;-1.524;2023-02-19T09:57:02;99842.04;;;5.25;72.17
60246;BME280;46107;53.356;-1.524;2023-02-19T09:59:32;99844.64;;;5.78;70.32
60246;BME280;46107;53.356;-1.524;2023-02-19T10:02:04;99853.44;;;6.34;66.40
60246;BME280;46107;53.356;-1.524;2023-02-19T10:04:40;99845.51;;;5.69;66.95
60246;BME280;46107;53.356;-1.524;2023-02-19T10:07:12;99841.26;;;5.35;67.70
60246;BME280;46107;53.356;-1.524;2023-02-19T10:09:40;99832.09;;;4.55;73.69
60246;BME280;46107;53.356;-1.524;2023-02-19T10:12:14;99833.64;;;5.26;71.16
60246;BME280;46107;53.356;-1.524;2023-02-19T10:14:46;99834.13;;;5.36;69.45
60246;BME280;46107;53.356;-1.524;2023-02-19T10:17:22;99833.30;;;6.27;67.33
60246;BME280;46107;53.356;-1.524;2023-02-19T10:19:50;99835.96;;;4.99;72.03
60246;BME280;46107;53.356;-1.524;2023-02-19T10:22:18;99838.34;;;5.27;73.70
60246;BME280;46107;53.356;-1.524;2023-02-19T10:24:51;99837.47;;;4.64;74.20
60246;BME280;46107;53.356;-1.524;2023-02-19T10:27:19;99831.07;;;4.81;74.85
60246;BME280;46107;53.356;-1.524;2023-02-19T10:29:48;99841.60;;;4.98;72.94
60246;BME280;46107;53.356;-1.524;2023-02-19T10:32:18;99838.70;;;4.90;73.11
60246;BME280;46107;53.356;-1.524;2023-02-19T10:34:45;99832.10;;;5.23;72.57
60246;BME280;46107;53.356;-1.524;2023-02-19T10:37:16;99837.97;;;5.77;71.06
60246;BME280;46107;53.356;-1.524;2023-02-19T10:39:45;99837.90;;;5.07;72.22
60246;BME280;46107;53.356;-1.524;2023-02-19T10:42:17;99837.06;;;5.04;73.60
60246;BME280;46107;53.356;-1.524;2023-02-19T10:44:52;99833.27;;;4.56;75.43
60246;BME280;46107;53.356;-1.524;2023-02-19T10:47:23;99836.76;;;4.39;76.41
60246;BME280;46107;53.356;-1.524;2023-02-19T10:49:54;99840.40;;;5.43;72.98
60246;BME280;46107;53.356;-1.524;2023-02-19T10:52:26;99845.59;;;5.11;73.59
60246;BME280;46107;53.356;-1.524;2023-02-19T10:55:02;99835.02;;;4.48;75.11
60246;BME280;46107;53.356;-1.524;2023-02-19T10:57:39;99841.44;;;4.14;77.42
60246;BME280;46107;53.356;-1.524;2023-02-19T11:00:20;99845.52;;;4.77;77.72
60246;BME280;46107;53.356;-1.524;2023-02-19T11:02:48;99844.42;;;4.67;75.58
60246;BME280;46107;53.356;-1.524;2023-02-19T11:05:18;99842.06;;;5.02;74.53
60246;BME280;46107;53.356;-1.524;2023-02-19T11:07:48;99838.80;;;5.49;73.17
60246;BME280;46107;53.356;-1.524;2023-02-19T11:10:25;99835.37;;;4.71;75.76
60246;BME280;46107;53.356;-1.524;2023-02-19T11:12:56;99827.02;;;5.38;74.64
60246;BME280;46107;53.356;-1.524;2023-02-19T11:15:28;99832.71;;;5.41;73.65
60246;BME280;46107;53.356;-1.524;2023-02-19T11:18:00;99834.19;;;5.24;75.05
60246;BME280;46107;53.356;-1.524;2023-02-19T11:20:30;99839.52;;;5.50;73.86
60246;BME280;46107;53.356;-1.524;2023-02-19T11:23:00;99842.01;;;4.65;78.26
60246;BME280;46107;53.356;-1.524;2023-02-19T11:25:31;99850.22;;;5.40;75.25
60246;BME280;46107;53.356;-1.524;2023-02-19T11:28:04;99848.66;;;6.11;73.31
60246;BME280;46107;53.356;-1.524;2023-02-19T11:30:36;99862.62;;;6.20;72.97
60246;BME280;46107;53.356;-1.524;2023-02-19T11:33:26;99860.07;;;6.37;71.74
60246;BME280;46107;53.356;-1.524;2023-02-19T11:36:04;99862.02;;;5.56;74.58
60246;BME280;46107;53.356;-1.524;2023-02-19T11:38:44;99864.47;;;4.94;76.90
60246;BME280;46107;53.356;-1.524;2023-02-19T11:41:18;99864.92;;;5.00;78.51
60246;BME280;46107;53.356;-1.524;2023-02-19T11:44:01;99864.21;;;5.04;77.46
60246;BME280;46107;53.356;-1.524;2023-02-19T11:46:37;99871.63;;;5.85;77.01
60246;BME280;46107;53.356;-1.524;2023-02-19T11:49:17;99866.39;;;5.71;77.60
60246;BME280;46107;53.356;-1.524;2023-02-19T11:51:59;99860.13;;;5.85;76.31
60246;BME280;46107;53.356;-1.524;2023-02-19T11:54:44;99858.37;;;5.52;79.40
60246;BME280;46107;53.356;-1.524;2023-02-19T11:57:22;99847.36;;;5.51;78.39
60246;BME280;46107;53.356;-1.524;2023-02-19T12:00:07;99829.84;;;5.37;78.43
60246;BME280;46107;53.356;-1.524;2023-02-19T12:02:52;99823.53;;;6.26;78.01
60246;BME280;46107;53.356;-1.524;2023-02-19T12:05:33;99828.80;;;5.43;78.26
60246;BME280;46107;53.356;-1.524;2023-02-19T12:08:22;99802.97;;;6.75;74.85
60246;BME280;46107;53.356;-1.524;2023-02-19T12:11:09;99819.96;;;6.09;76.77
60246;BME280;46107;53.356;-1.524;2023-02-19T12:13:53;99802.31;;;6.76;73.85
60246;BME280;46107;53.356;-1.524;2023-02-19T12:16:27;99803.60;;;6.56;74.69
60246;BME280;46107;53.356;-1.524;2023-02-19T12:19:08;99798.23;;;6.99;74.88
60246;BME280;46107;53.356;-1.524;2023-02-19T12:21:54;99792.23;;;6.84;75.52
60246;BME280;46107;53.356;-1.524;2023-02-19T12:25:44;99798.87;;;6.77;75.29
60246;BME280;46107;53.356;-1.524;2023-02-19T12:28:36;99818.85;;;7.09;72.08
60246;BME280;46107;53.356;-1.524;2023-02-19T12:31:22;99816.53;;;7.57;69.34
60246;BME280;46107;53.356;-1.524;2023-02-19T12:34:13;99809.23;;;7.02;72.03
60246;BME280;46107;53.356;-1.524;2023-02-19T12:36:51;99810.94;;;7.77;68.60
60246;BME280;46107;53.356;-1.524;2023-02-19T12:39:33;99808.36;;;6.48;73.98
60246;BME280;46107;53.356;-1.524;2023-02-19T12:42:07;99816.75;;;7.22;74.28
60246;BME280;46107;53.356;-1.524;2023-02-19T12:44:41;99825.79;;;7.57;71.82
60246;BME280;46107;53.356;-1.524;2023-02-19T12:47:17;99840.98;;;7.63;70.93
60246;BME280;46107;53.356;-1.524;2023-02-19T12:49:49;99844.69;;;8.65;68.34
60246;BME280;46107;53.356;-1.524;2023-02-19T12:52:21;99848.89;;;8.64;65.89
60246;BME280;46107;53.356;-1.524;2023-02-19T12:54:53;99852.40;;;7.69;65.52
60246;BME280;46107;53.356;-1.524;2023-02-19T12:57:24;99851.86;;;8.56;64.71
60246;BME280;46107;53.356;-1.524;2023-02-19T12:59:55;99854.97;;;8.09;65.08
60246;BME280;46107;53.356;-1.524;2023-02-19T13:02:32;99860.17;;;8.03;66.60
60246;BME280;46107;53.356;-1.524;2023-02-19T13:05:07;99854.82;;;7.90;65.84
60246;BME280;46107;53.356;-1.524;2023-02-19T13:07:44;99846.68;;;7.91;63.34
60246;BME280;46107;53.356;-1.524;2023-02-19T13:10:25;99836.54;;;8.18;63.97
60246;BME280;46107;53.356;-1.524;2023-02-19T13:12:59;99821.73;;;8.21;62.85
60246;BME280;46107;53.356;-1.524;2023-02-19T13:15:34;99829.57;;;8.49;64.33
60246;BME280;46107;53.356;-1.524;2023-02-19T13:18:11;99824.97;;;9.81;59.26
60246;BME280;46107;53.356;-1.524;2023-02-19T13:20:42;99811.20;;;9.67;58.08